Aviation Digital Data Service (ADDS)

Output produced by METARs form (0352 UTC 14 December 2018)
found at http://aviationweather.gov/metar/data/
 
METAR text: KDKB 140335Z AUTO 07003KT 1 1/2SM DZ OVC004 03/03 A3008 RMK AO2 T00310031
Conditions at: KDKB (DE KALB , IL, US) observed 0335 UTC 14 December 2018
Temperature: 3.1°C (38°F)
Dewpoint: 3.1°C (38°F) [RH = 100%]
Pressure (altimeter): 30.08 inches Hg (1018.7 mb)
Winds: from the ENE (70 degrees) at 3 MPH (3 knots; 1.5 m/s)
Visibility: 1.50 miles (2.41 km)
Ceiling: 400 feet AGL
Clouds: overcast cloud deck at 400 feet AGL
Weather: DZ  (moderate drizzle)